createdAt,value
2018-06-14T00:01:41.068Z,100777.14
2018-06-14T00:04:09.096Z,100769.15
2018-06-14T00:06:37.091Z,100765.30
2018-06-14T00:09:07.468Z,100767.86
2018-06-14T00:11:35.457Z,100760.30
2018-06-14T00:14:04.396Z,100757.36
2018-06-14T00:16:32.407Z,100757.13
2018-06-14T00:19:00.474Z,100760.67
2018-06-14T00:21:28.466Z,100759.73
2018-06-14T00:23:56.472Z,100761.27
2018-06-14T00:26:24.433Z,100767.00
2018-06-14T00:28:52.449Z,100769.49
2018-06-14T00:31:21.096Z,100768.43
2018-06-14T00:33:49.266Z,100760.77
2018-06-14T00:36:17.276Z,100761.02
2018-06-14T00:38:45.323Z,100764.22
2018-06-14T00:41:13.318Z,100771.10
2018-06-14T00:43:41.300Z,100777.44
2018-06-14T00:46:09.329Z,100785.55
2018-06-14T00:48:37.353Z,100783.92
2018-06-14T00:51:05.358Z,100784.07
2018-06-14T00:53:33.369Z,100780.78
2018-06-14T00:56:01.364Z,100785.16
2018-06-14T00:58:29.400Z,100781.45
2018-06-14T01:00:57.392Z,100785.25
2018-06-14T01:03:25.428Z,100784.61
2018-06-14T01:05:53.445Z,100781.95
2018-06-14T01:08:21.559Z,100778.03
2018-06-14T01:10:49.569Z,100775.23
2018-06-14T01:13:17.586Z,100782.13
2018-06-14T01:15:45.723Z,100779.15
2018-06-14T01:18:13.713Z,100784.70
2018-06-14T01:20:41.724Z,100782.28
2018-06-14T01:23:09.739Z,100771.91
2018-06-14T01:25:37.732Z,100778.95
2018-06-14T01:28:05.700Z,100782.84
2018-06-14T01:30:33.776Z,100788.41
2018-06-14T01:33:01.830Z,100778.76
2018-06-14T01:35:30.217Z,100782.25
2018-06-14T01:38:09.678Z,100775.89
2018-06-14T01:40:37.708Z,100776.94
2018-06-14T01:43:05.827Z,100777.18
2018-06-14T01:45:34.328Z,100777.97
2018-06-14T01:48:02.332Z,100778.22
2018-06-14T01:50:30.341Z,100778.20
2018-06-14T01:52:58.339Z,100777.23
2018-06-14T01:55:29.672Z,100774.20
2018-06-14T01:57:57.673Z,100771.23
2018-06-14T02:00:25.660Z,100776.80
2018-06-14T02:02:53.710Z,100775.99
2018-06-14T02:05:21.716Z,100774.91
2018-06-14T02:07:49.746Z,100774.21
2018-06-14T02:10:17.775Z,100771.38
2018-06-14T02:12:45.816Z,100771.48
2018-06-14T02:15:13.837Z,100771.67
2018-06-14T02:17:41.801Z,100768.67
2018-06-14T02:20:09.813Z,100780.77
2018-06-14T02:22:37.801Z,100778.81
2018-06-14T02:25:05.921Z,100783.77
2018-06-14T02:27:33.988Z,100778.64
2018-06-14T02:30:02.004Z,100786.19
2018-06-14T02:32:30.225Z,100784.12
2018-06-14T02:34:58.274Z,100780.48
2018-06-14T02:37:26.880Z,100776.05
2018-06-14T02:39:54.898Z,100778.36
2018-06-14T02:42:22.876Z,100786.33
2018-06-14T02:44:50.903Z,100794.83
2018-06-14T02:47:18.953Z,100804.13
2018-06-14T02:49:46.907Z,100797.56
2018-06-14T02:52:14.896Z,100796.97
2018-06-14T02:54:42.897Z,100795.22
2018-06-14T02:57:10.901Z,100801.77
2018-06-14T02:59:38.937Z,100798.05
2018-06-14T03:02:07.012Z,100795.94
2018-06-14T03:04:35.036Z,100793.37
2018-06-14T03:07:03.073Z,100800.87
2018-06-14T03:09:31.072Z,100795.69
2018-06-14T03:11:59.095Z,100796.13
2018-06-14T03:14:27.124Z,100797.06
2018-06-14T03:16:55.136Z,100795.48
2018-06-14T03:19:23.125Z,100793.89
2018-06-14T03:21:51.161Z,100794.48
2018-06-14T03:24:19.160Z,100784.30
2018-06-14T03:26:47.165Z,100792.08
2018-06-14T03:29:15.329Z,100789.08
2018-06-14T03:34:19.884Z,100793.19
2018-06-14T03:36:47.889Z,100780.18
2018-06-14T03:39:15.856Z,100785.97
2018-06-14T03:41:43.840Z,100781.57
2018-06-14T03:44:11.810Z,100778.75
2018-06-14T03:46:39.798Z,100767.20
2018-06-14T03:49:07.801Z,100769.23
2018-06-14T03:51:35.842Z,100761.10
2018-06-14T03:54:03.853Z,100766.50
2018-06-14T03:56:31.856Z,100765.77
2018-06-14T03:58:59.868Z,100770.48
2018-06-14T04:01:27.852Z,100765.65
2018-06-14T04:03:55.913Z,100756.92
2018-06-14T04:06:23.919Z,100760.80
2018-06-14T04:08:51.949Z,100756.60
2018-06-14T04:11:20.061Z,100768.39
2018-06-14T04:13:48.068Z,100760.13
2018-06-14T04:16:16.097Z,100764.86
2018-06-14T04:18:44.115Z,100765.60
2018-06-14T04:21:12.141Z,100761.27
2018-06-14T04:23:40.137Z,100755.36
2018-06-14T04:26:08.204Z,100748.03
2018-06-14T04:28:36.341Z,100750.55
2018-06-14T04:31:04.436Z,100754.89
2018-06-14T04:33:32.416Z,100760.95
2018-06-14T04:36:00.441Z,100759.27
2018-06-14T04:38:28.580Z,100761.09
2018-06-14T04:40:56.806Z,100759.90
2018-06-14T04:43:24.924Z,100757.28
2018-06-14T04:45:52.976Z,100761.75
2018-06-14T04:48:20.997Z,100756.79
2018-06-14T04:50:48.993Z,100757.00
2018-06-14T04:53:16.977Z,100750.66
2018-06-14T04:55:44.987Z,100754.28
2018-06-14T04:58:12.992Z,100757.43
2018-06-14T05:00:41.020Z,100748.70
2018-06-14T05:03:09.068Z,100748.67
2018-06-14T05:05:37.123Z,100754.93
2018-06-14T05:08:05.274Z,100755.63
2018-06-14T05:10:33.275Z,100756.97
2018-06-14T05:13:01.320Z,100754.80
2018-06-14T05:15:29.326Z,100764.17
2018-06-14T05:17:57.358Z,100753.81
2018-06-14T05:20:25.345Z,100755.52
2018-06-14T05:22:53.417Z,100750.37
2018-06-14T05:25:21.465Z,100747.48
2018-06-14T05:27:49.447Z,100741.14
2018-06-14T05:30:17.424Z,100739.57
2018-06-14T05:32:45.436Z,100741.86
2018-06-14T05:35:13.480Z,100739.25
2018-06-14T05:37:41.504Z,100742.06
2018-06-14T05:40:09.498Z,100754.58
2018-06-14T05:42:37.520Z,100748.19
2018-06-14T05:45:05.492Z,100747.76
2018-06-14T05:47:33.485Z,100749.31
2018-06-14T05:50:01.468Z,100750.62
2018-06-14T05:52:29.453Z,100758.39
2018-06-14T05:54:57.539Z,100755.98
2018-06-14T05:57:25.536Z,100759.98
2018-06-14T05:59:53.517Z,100758.84
2018-06-14T06:02:21.518Z,100759.47
2018-06-14T06:04:49.509Z,100750.50
2018-06-14T06:07:17.500Z,100758.04
2018-06-14T06:09:45.512Z,100762.22
2018-06-14T06:12:13.523Z,100760.48
2018-06-14T06:14:41.546Z,100761.33
2018-06-14T06:17:09.784Z,100751.30
2018-06-14T06:19:37.828Z,100754.17
2018-06-14T06:22:05.860Z,100759.34
2018-06-14T06:24:33.944Z,100752.40
2018-06-14T06:27:02.168Z,100748.38
2018-06-14T06:29:30.353Z,100750.50
2018-06-14T06:31:58.437Z,100752.55
2018-06-14T06:34:26.432Z,100750.36
2018-06-14T06:36:54.421Z,100756.36
2018-06-14T06:39:22.414Z,100763.59
2018-06-14T06:41:50.406Z,100751.20
2018-06-14T06:44:18.441Z,100753.44
2018-06-14T06:46:46.469Z,100750.92
2018-06-14T06:49:14.576Z,100755.50
2018-06-14T06:51:42.595Z,100754.42
2018-06-14T06:54:11.289Z,100754.95
2018-06-14T06:56:39.347Z,100756.80
2018-06-14T06:59:07.357Z,100759.77
2018-06-14T07:01:35.365Z,100757.03
2018-06-14T07:04:03.391Z,100758.42
2018-06-14T07:06:31.435Z,100767.19
2018-06-14T07:08:59.458Z,100766.58
2018-06-14T07:11:27.616Z,100760.52
2018-06-14T07:13:55.641Z,100758.30
2018-06-14T07:16:23.689Z,100748.41
2018-06-14T07:18:51.765Z,100747.72
2018-06-14T07:21:19.856Z,100746.00
2018-06-14T07:23:47.868Z,100748.95
2018-06-14T07:26:15.910Z,100745.37
2018-06-14T07:28:43.932Z,100737.29
2018-06-14T07:31:11.908Z,100736.72
2018-06-14T07:33:39.933Z,100734.19
2018-06-14T07:36:07.948Z,100735.95
2018-06-14T07:38:35.971Z,100730.03
2018-06-14T07:41:04.020Z,100730.03
2018-06-14T07:43:32.042Z,100724.48
2018-06-14T07:46:00.036Z,100731.08
2018-06-14T07:48:28.057Z,100723.55
2018-06-14T07:50:56.092Z,100716.41
2018-06-14T07:53:24.092Z,100717.25
2018-06-14T07:55:52.109Z,100716.97
2018-06-14T07:58:20.143Z,100720.42
2018-06-14T08:00:48.167Z,100709.88
2018-06-14T08:03:16.169Z,100709.77
2018-06-14T08:05:44.180Z,100708.89
2018-06-14T08:08:12.183Z,100705.37
2018-06-14T08:10:40.227Z,100710.09
2018-06-14T08:13:08.585Z,100711.57
2018-06-14T08:15:36.650Z,100708.73
2018-06-14T08:18:04.643Z,100708.55
2018-06-14T08:20:32.725Z,100709.81
2018-06-14T08:23:00.717Z,100714.00
2018-06-14T08:25:28.733Z,100707.06
2018-06-14T08:27:56.722Z,100707.91
2018-06-14T08:30:24.714Z,100706.41
2018-06-14T08:32:52.910Z,100708.48
2018-06-14T08:35:21.920Z,100701.77
2018-06-14T08:37:49.944Z,100696.90
2018-06-14T08:40:17.961Z,100693.44
2018-06-14T08:42:45.979Z,100689.47
2018-06-14T08:45:14.043Z,100695.14
2018-06-14T08:47:42.080Z,100694.82
2018-06-14T08:50:10.116Z,100697.51
2018-06-14T08:52:38.295Z,100699.38
2018-06-14T08:55:06.345Z,100694.67
2018-06-14T08:57:35.360Z,100690.99
2018-06-14T09:00:03.610Z,100688.11
2018-06-14T09:02:32.444Z,100680.83
2018-06-14T09:05:00.536Z,100677.34
2018-06-14T09:07:28.790Z,100675.16
2018-06-14T09:09:56.792Z,100682.58
2018-06-14T09:12:24.894Z,100683.12
2018-06-14T09:14:53.153Z,100678.28
2018-06-14T09:17:21.176Z,100672.52
2018-06-14T09:19:49.266Z,100686.39
2018-06-14T09:22:17.528Z,100676.23
2018-06-14T09:24:45.573Z,100677.38
2018-06-14T09:27:13.596Z,100673.69
2018-06-14T09:29:41.666Z,100670.95
2018-06-14T09:32:09.764Z,100676.77
2018-06-14T09:34:37.790Z,100675.29
2018-06-14T09:37:05.965Z,100678.64
2018-06-14T09:39:34.293Z,100675.16
2018-06-14T09:42:02.294Z,100677.41
2018-06-14T09:44:30.304Z,100677.80
2018-06-14T09:46:58.337Z,100683.20
2018-06-14T09:49:26.377Z,100677.77
2018-06-14T09:51:54.389Z,100677.09
2018-06-14T09:54:22.796Z,100673.61
2018-06-14T09:56:51.097Z,100676.95
2018-06-14T09:59:19.132Z,100673.31
2018-06-14T10:01:47.137Z,100667.02
2018-06-14T10:04:15.296Z,100672.69
2018-06-14T10:06:43.453Z,100668.21
2018-06-14T10:09:12.820Z,100672.31
2018-06-14T10:11:40.927Z,100663.42
2018-06-14T10:14:09.356Z,100653.95
2018-06-14T10:16:37.408Z,100655.96
2018-06-14T10:19:05.741Z,100660.02
2018-06-14T10:21:33.879Z,100652.88
2018-06-14T10:24:01.922Z,100653.39
2018-06-14T10:26:29.965Z,100639.72
2018-06-14T10:28:58.076Z,100644.47
2018-06-14T10:31:26.089Z,100649.71
2018-06-14T10:33:54.148Z,100648.47
2018-06-14T10:36:22.168Z,100644.44
2018-06-14T10:38:50.240Z,100644.03
2018-06-14T10:41:18.319Z,100648.36
2018-06-14T10:43:46.381Z,100651.80
2018-06-14T10:46:14.412Z,100644.42
2018-06-14T10:48:42.428Z,100640.84
2018-06-14T10:51:10.511Z,100641.44
2018-06-14T10:53:38.526Z,100632.48
2018-06-14T10:56:06.560Z,100643.59
2018-06-14T10:58:34.600Z,100626.89
2018-06-14T11:01:02.589Z,100628.91
2018-06-14T11:03:30.603Z,100639.91
2018-06-14T11:05:58.739Z,100638.45
2018-06-14T11:08:26.812Z,100627.80
2018-06-14T11:10:54.824Z,100619.69
2018-06-14T11:13:22.879Z,100620.26
2018-06-14T11:15:50.902Z,100619.62
2018-06-14T11:18:18.913Z,100630.69
2018-06-14T11:20:46.942Z,100626.59
2018-06-14T11:23:14.991Z,100617.98
2018-06-14T11:25:43.091Z,100617.34
2018-06-14T11:28:11.172Z,100614.74
2018-06-14T11:30:39.172Z,100613.00
2018-06-14T11:33:07.215Z,100603.79
2018-06-14T11:35:35.209Z,100599.20
2018-06-14T11:38:03.234Z,100598.19
2018-06-14T11:40:31.258Z,100597.92
2018-06-14T11:42:59.283Z,100593.96
2018-06-14T11:45:27.308Z,100595.08
2018-06-14T11:47:55.358Z,100597.61
2018-06-14T11:50:23.400Z,100590.23
2018-06-14T11:52:51.375Z,100601.22
2018-06-14T11:55:19.490Z,100609.07
2018-06-14T11:57:47.514Z,100596.52
2018-06-14T12:00:15.597Z,100588.03
2018-06-14T12:02:43.603Z,100593.15
2018-06-14T12:05:11.628Z,100593.62
2018-06-14T12:07:39.645Z,100592.85
2018-06-14T12:10:07.673Z,100583.09
2018-06-14T12:12:35.690Z,100573.97
2018-06-14T12:15:03.803Z,100566.55
2018-06-14T12:17:31.800Z,100569.31
2018-06-14T12:19:59.837Z,100570.45
2018-06-14T12:22:27.876Z,100566.92
2018-06-14T12:24:55.957Z,100562.38
2018-06-14T12:27:23.996Z,100558.16
2018-06-14T12:29:52.099Z,100559.58
2018-06-14T12:32:20.111Z,100558.47
2018-06-14T12:34:48.180Z,100566.30
2018-06-14T12:37:16.176Z,100559.98
2018-06-14T12:39:44.185Z,100552.64
2018-06-14T12:42:12.188Z,100547.14
2018-06-14T12:44:40.204Z,100539.38
2018-06-14T12:47:08.216Z,100544.66
2018-06-14T12:49:36.220Z,100538.20
2018-06-14T12:52:04.248Z,100543.52
2018-06-14T12:54:32.260Z,100535.56
2018-06-14T12:57:00.292Z,100526.56
2018-06-14T12:59:28.297Z,100530.65
2018-06-14T13:01:56.340Z,100524.47
2018-06-14T13:04:24.358Z,100518.37
2018-06-14T13:06:52.498Z,100510.20
2018-06-14T13:09:20.520Z,100503.17
2018-06-14T13:11:48.613Z,100501.33
2018-06-14T13:14:16.600Z,100496.67
2018-06-14T13:16:44.657Z,100506.97
2018-06-14T13:19:12.694Z,100505.65
2018-06-14T13:21:40.709Z,100495.27
2018-06-14T13:24:08.749Z,100490.72
2018-06-14T13:26:36.784Z,100495.91
2018-06-14T13:29:04.805Z,100493.02
2018-06-14T13:31:32.801Z,100489.95
2018-06-14T13:34:00.848Z,100493.84
2018-06-14T13:36:29.112Z,100493.32
2018-06-14T13:38:57.173Z,100488.65
2018-06-14T13:41:25.237Z,100485.52
2018-06-14T13:43:53.252Z,100485.39
2018-06-14T13:46:21.282Z,100490.50
2018-06-14T13:48:49.403Z,100491.15
2018-06-14T13:51:17.349Z,100496.31
2018-06-14T13:53:45.460Z,100492.97
2018-06-14T13:56:13.468Z,100493.83
2018-06-14T13:58:41.476Z,100491.01
2018-06-14T14:01:09.638Z,100485.95
2018-06-14T14:03:37.505Z,100487.34
2018-06-14T14:06:05.531Z,100489.52
2018-06-14T14:08:33.549Z,100488.91
2018-06-14T14:11:01.548Z,100483.05
2018-06-14T14:13:29.562Z,100475.84
2018-06-14T14:15:57.591Z,100470.94
2018-06-14T14:18:25.625Z,100481.19
2018-06-14T14:20:53.700Z,100482.84
2018-06-14T14:23:21.756Z,100476.95
2018-06-14T14:25:49.766Z,100479.70
2018-06-14T14:28:17.749Z,100477.58
2018-06-14T14:30:45.771Z,100473.73
2018-06-14T14:33:13.809Z,100471.04
2018-06-14T14:35:41.936Z,100473.00
2018-06-14T14:38:09.943Z,100462.89
2018-06-14T14:40:37.954Z,100466.47
2018-06-14T14:43:05.942Z,100467.63
2018-06-14T14:45:33.988Z,100460.22
2018-06-14T14:48:02.027Z,100466.02
2018-06-14T14:50:30.141Z,100466.97
2018-06-14T14:52:58.153Z,100469.95
2018-06-14T14:55:26.189Z,100463.59
2018-06-14T14:57:54.186Z,100454.72
2018-06-14T15:00:22.217Z,100456.45
2018-06-14T15:02:50.225Z,100466.04
2018-06-14T15:05:18.316Z,100460.30
2018-06-14T15:07:46.348Z,100457.80
2018-06-14T15:10:14.375Z,100457.32
2018-06-14T15:12:42.424Z,100457.76
2018-06-14T15:15:10.448Z,100454.47
2018-06-14T15:17:38.473Z,100459.89
2018-06-14T15:20:06.537Z,100461.25
2018-06-14T15:22:34.599Z,100458.39
2018-06-14T15:25:02.669Z,100452.67
2018-06-14T15:27:30.764Z,100456.10
2018-06-14T15:29:58.792Z,100464.95
2018-06-14T15:32:26.899Z,100462.03
2018-06-14T15:34:54.930Z,100467.37
2018-06-14T15:37:23.000Z,100461.31
2018-06-14T15:39:51.272Z,100467.67
2018-06-14T15:42:19.371Z,100464.42
2018-06-14T15:44:47.422Z,100457.41
2018-06-14T15:47:15.485Z,100462.19
2018-06-14T15:49:43.484Z,100461.70
2018-06-14T15:52:11.501Z,100458.01
2018-06-14T15:54:39.520Z,100456.55
2018-06-14T15:57:07.609Z,100469.36
2018-06-14T15:59:35.626Z,100468.00
2018-06-14T16:02:03.629Z,100461.90
2018-06-14T16:04:31.672Z,100461.13
2018-06-14T16:06:59.712Z,100460.80
2018-06-14T16:09:27.857Z,100458.99
2018-06-14T16:11:55.981Z,100457.78
2018-06-14T16:14:24.012Z,100463.05
2018-06-14T16:16:52.033Z,100459.05
2018-06-14T16:19:20.076Z,100463.61
2018-06-14T16:21:48.089Z,100464.16
2018-06-14T16:24:16.226Z,100473.27
2018-06-14T16:26:44.252Z,100466.98
2018-06-14T16:29:12.359Z,100466.25
2018-06-14T16:31:40.380Z,100476.63
2018-06-14T16:34:08.480Z,100475.83
2018-06-14T16:36:36.493Z,100481.72
2018-06-14T16:39:07.410Z,100482.66
2018-06-14T16:41:35.457Z,100485.76
2018-06-14T16:44:03.501Z,100485.04
2018-06-14T16:46:31.522Z,100500.42
2018-06-14T16:48:59.540Z,100503.46
2018-06-14T16:51:27.554Z,100510.14
2018-06-14T16:53:55.780Z,100510.12
2018-06-14T16:56:23.811Z,100522.55
2018-06-14T16:58:51.887Z,100528.84
2018-06-14T17:01:19.954Z,100534.64
2018-06-14T17:03:47.956Z,100544.08
2018-06-14T17:06:16.053Z,100548.95
2018-06-14T17:08:44.049Z,100550.73
2018-06-14T17:11:12.193Z,100552.97
2018-06-14T17:13:40.248Z,100551.12
2018-06-14T17:16:08.321Z,100566.27
2018-06-14T17:18:36.327Z,100572.05
2018-06-14T17:21:04.401Z,100576.42
2018-06-14T17:23:33.218Z,100583.08
2018-06-14T17:26:01.564Z,100588.88
2018-06-14T17:28:29.726Z,100587.34
2018-06-14T17:30:57.765Z,100595.27
2018-06-14T17:33:25.859Z,100598.02
2018-06-14T17:35:53.881Z,100603.88
2018-06-14T17:38:21.895Z,100607.84
2018-06-14T17:40:49.965Z,100614.44
2018-06-14T17:43:18.016Z,100615.56
2018-06-14T17:45:46.201Z,100620.64
2018-06-14T17:48:14.260Z,100629.06
2018-06-14T17:50:42.785Z,100621.73
2018-06-14T17:53:10.916Z,100631.92
2018-06-14T17:55:38.943Z,100630.36
2018-06-14T17:58:07.030Z,100628.62
2018-06-14T18:00:35.128Z,100628.83
2018-06-14T18:03:03.510Z,100632.45
2018-06-14T18:05:31.597Z,100624.47
2018-06-14T18:07:59.633Z,100626.22
2018-06-14T18:10:27.655Z,100623.20
2018-06-14T18:12:55.681Z,100624.47
2018-06-14T18:15:23.726Z,100621.73
2018-06-14T18:17:51.778Z,100618.02
2018-06-14T18:20:19.753Z,100622.80
2018-06-14T18:22:47.793Z,100618.89
2018-06-14T18:25:15.843Z,100621.13
2018-06-14T18:27:43.812Z,100626.38
2018-06-14T18:30:11.884Z,100628.95
2018-06-14T18:32:39.941Z,100626.42
2018-06-14T18:35:07.958Z,100618.05
2018-06-14T18:37:35.996Z,100610.08
2018-06-14T18:40:04.189Z,100620.81
2018-06-14T18:42:32.211Z,100624.39
2018-06-14T18:45:00.277Z,100620.30
2018-06-14T18:47:28.293Z,100620.42
2018-06-14T18:49:56.320Z,100624.06
2018-06-14T18:52:24.348Z,100619.75
2018-06-14T18:54:52.393Z,100624.31
2018-06-14T18:57:20.471Z,100623.95
2018-06-14T18:59:48.465Z,100631.78
2018-06-14T19:02:16.625Z,100635.16
2018-06-14T19:04:44.648Z,100636.92
2018-06-14T19:07:12.660Z,100637.45
2018-06-14T19:09:40.680Z,100634.39
2018-06-14T19:12:08.737Z,100634.05
2018-06-14T19:14:36.812Z,100641.44
2018-06-14T19:17:04.886Z,100647.54
2018-06-14T19:19:32.904Z,100642.94
2018-06-14T19:22:01.009Z,100654.55
2018-06-14T19:24:29.013Z,100657.39
2018-06-14T19:26:57.048Z,100659.95
2018-06-14T19:29:25.182Z,100663.16
2018-06-14T19:31:53.212Z,100656.16
2018-06-14T19:34:21.230Z,100656.50
2018-06-14T19:36:49.230Z,100656.88
2018-06-14T19:39:17.220Z,100650.22
2018-06-14T19:41:45.206Z,100647.19
2018-06-14T19:44:13.216Z,100644.88
2018-06-14T19:46:41.238Z,100643.45
2018-06-14T19:49:09.254Z,100647.59
2018-06-14T19:51:37.321Z,100642.19
2018-06-14T19:54:05.366Z,100646.14
2018-06-14T19:56:33.469Z,100649.81
2018-06-14T19:59:01.530Z,100652.53
2018-06-14T20:01:29.565Z,100649.19
2018-06-14T20:03:57.577Z,100649.28
2018-06-14T20:06:25.584Z,100650.08
2018-06-14T20:08:53.596Z,100649.08
2018-06-14T20:11:21.608Z,100644.52
2018-06-14T20:13:49.593Z,100645.91
2018-06-14T20:16:17.616Z,100647.56
2018-06-14T20:18:45.659Z,100645.92
2018-06-14T20:21:13.696Z,100646.06
2018-06-14T20:23:41.731Z,100644.65
2018-06-14T20:26:10.035Z,100644.16
2018-06-14T20:28:38.017Z,100647.61
2018-06-14T20:31:06.136Z,100653.59
2018-06-14T20:33:34.137Z,100649.23
2018-06-14T20:36:02.165Z,100657.17
2018-06-14T20:38:30.237Z,100653.82
2018-06-14T20:40:58.577Z,100656.28
2018-06-14T20:43:26.634Z,100650.13
2018-06-14T20:45:54.631Z,100647.91
2018-06-14T20:48:22.628Z,100651.83
2018-06-14T20:50:50.612Z,100654.53
2018-06-14T20:53:18.669Z,100648.11
2018-06-14T20:55:46.699Z,100653.45
2018-06-14T20:58:14.697Z,100659.00
2018-06-14T21:00:42.676Z,100658.02
2018-06-14T21:03:10.668Z,100655.55
2018-06-14T21:05:38.885Z,100656.34
2018-06-14T21:08:06.936Z,100663.52
2018-06-14T21:10:34.915Z,100657.38
2018-06-14T21:13:02.921Z,100665.81
2018-06-14T21:15:31.013Z,100669.28
2018-06-14T21:17:59.145Z,100670.53
2018-06-14T21:20:27.140Z,100676.38
2018-06-14T21:22:55.161Z,100675.12
2018-06-14T21:25:23.929Z,100675.09
2018-06-14T21:27:51.973Z,100677.77
2018-06-14T21:30:20.021Z,100688.60
2018-06-14T21:32:48.038Z,100686.35
2018-06-14T21:35:16.743Z,100688.11
2018-06-14T21:37:44.840Z,100687.55
2018-06-14T21:40:12.836Z,100695.37
2018-06-14T21:42:40.981Z,100689.73
2018-06-14T21:45:09.069Z,100691.00
2018-06-14T21:47:37.307Z,100691.77
2018-06-14T21:50:05.320Z,100686.22
2018-06-14T21:52:33.324Z,100686.69
2018-06-14T21:55:01.446Z,100687.98
2018-06-14T21:57:29.444Z,100696.97
2018-06-14T21:59:57.494Z,100692.05
2018-06-14T22:02:25.640Z,100689.36
2018-06-14T22:04:53.676Z,100695.13
2018-06-14T22:07:21.745Z,100698.09
2018-06-14T22:09:49.794Z,100688.41
2018-06-14T22:12:17.892Z,100692.76
2018-06-14T22:14:45.885Z,100688.33
2018-06-14T22:17:13.909Z,100688.57
2018-06-14T22:19:41.945Z,100687.36
2018-06-14T22:22:10.102Z,100685.95
2018-06-14T22:24:38.132Z,100683.74
2018-06-14T22:27:06.184Z,100693.12
2018-06-14T22:29:34.206Z,100691.53
2018-06-14T22:32:02.191Z,100685.95
2018-06-14T22:34:41.630Z,100690.00
2018-06-14T22:37:09.631Z,100688.62
2018-06-14T22:39:37.629Z,100689.94
2018-06-14T22:42:05.612Z,100685.94
2018-06-14T22:44:33.633Z,100691.20
2018-06-14T22:47:01.622Z,100693.25
2018-06-14T22:49:29.712Z,100688.10
2018-06-14T22:53:12.977Z,100690.00
2018-06-14T22:55:40.972Z,100695.70
2018-06-14T22:58:08.980Z,100685.95
2018-06-14T23:01:46.480Z,100692.67
2018-06-14T23:04:15.972Z,100695.43
2018-06-14T23:06:43.973Z,100692.58
2018-06-14T23:10:25.359Z,100689.91
2018-06-14T23:12:53.369Z,100694.80
2018-06-14T23:15:21.679Z,100691.00
2018-06-14T23:17:50.381Z,100698.73
2018-06-14T23:20:19.585Z,100697.22
2018-06-14T23:22:48.782Z,100694.63
2018-06-14T23:25:17.392Z,100700.23
2018-06-14T23:27:45.408Z,100696.22
2018-06-14T23:30:13.421Z,100703.73
2018-06-14T23:32:41.442Z,100705.14
2018-06-14T23:35:09.485Z,100697.19
2018-06-14T23:37:37.509Z,100700.69
2018-06-14T23:40:05.561Z,100704.45
2018-06-14T23:42:33.583Z,100702.31
2018-06-14T23:45:01.638Z,100699.18
2018-06-14T23:47:29.664Z,100701.36
2018-06-14T23:49:57.750Z,100700.84
2018-06-14T23:52:25.957Z,100708.54
2018-06-14T23:54:54.010Z,100710.80
2018-06-14T23:57:22.064Z,100706.58
2018-06-14T23:59:50.661Z,100708.08
